Time;durP1;ratioP1;P1;durP2;ratioP2;P2;SDS_P1;SDS_P2;PMS_P1;PMS_P2;Temp;Humidity;BMP_temperature;BMP_pressure;BME280_temperature;BME280_humidity;BME280_pressure;Samples;Min_cycle;Max_cycle;Signal;HPM_P1;HPM_P2
2021/03/27 00:02:04;;;;;;;26.15;13.77;;;;;;;26.30;15.76;98540.16;5059542;28;20389;-90
2021/03/27 00:04:42;;;;;;;22.90;10.60;;;;;;;27.01;15.43;98541.25;5063944;28;20067;-91
2021/03/27 00:07:19;;;;;;;22.17;11.85;;;;;;;26.61;15.83;98532.97;5045009;28;20119;-90
2021/03/27 00:09:50;;;;;;;23.90;11.68;;;;;;;25.86;16.25;98533.13;5038613;28;20369;-90
2021/03/27 00:12:40;;;;;;;20.55;11.35;;;;;;;26.25;16.10;98523.81;5072397;28;20376;-90
2021/03/27 00:15:29;;;;;;;18.27;9.98;;;;;;;26.67;15.51;98522.78;5054798;28;20028;-91
2021/03/27 00:18:17;;;;;;;24.77;8.20;;;;;;;27.25;15.25;98517.22;5059619;28;20037;-90
2021/03/27 00:20:55;;;;;;;16.40;7.85;;;;;;;27.51;14.97;98527.41;5061591;28;20463;-90
2021/03/27 00:23:42;;;;;;;19.83;11.07;;;;;;;26.93;15.45;98518.13;5062713;28;20084;-90
2021/03/27 00:26:16;;;;;;;18.65;8.95;;;;;;;27.29;15.04;98524.34;5054547;28;20115;-90
2021/03/27 00:28:44;;;;;;;20.15;9.65;;;;;;;27.17;15.33;98513.00;5062049;28;20138;-90
2021/03/27 00:31:16;;;;;;;17.55;8.90;;;;;;;27.52;14.71;98525.34;5059547;28;20029;-90
2021/03/27 00:33:53;;;;;;;15.15;7.78;;;;;;;27.49;14.78;98520.63;5048318;28;20120;-90
2021/03/27 00:36:27;;;;;;;18.60;9.60;;;;;;;27.74;14.52;98515.03;5059422;28;20052;-90
2021/03/27 00:39:10;;;;;;;14.00;8.13;;;;;;;28.13;14.38;98516.69;5059905;28;20032;-90
2021/03/27 00:41:41;;;;;;;15.90;8.30;;;;;;;27.86;14.41;98515.06;5061161;28;20036;-90
2021/03/27 00:44:11;;;;;;;17.75;9.32;;;;;;;27.94;14.44;98507.16;5061174;28;20434;-90
2021/03/27 00:46:41;;;;;;;14.32;7.85;;;;;;;28.04;14.37;98511.72;5059445;28;20033;-90
2021/03/27 00:49:19;;;;;;;14.05;7.68;;;;;;;28.41;14.21;98504.47;5057118;28;20109;-90
2021/03/27 00:51:51;;;;;;;14.93;8.07;;;;;;;28.40;13.98;98509.31;5057592;28;20078;-90
2021/03/27 00:54:25;;;;;;;17.83;8.18;;;;;;;28.29;14.08;98506.06;5060057;28;20056;-90
2021/03/27 00:57:29;;;;;;;16.02;7.82;;;;;;;28.56;13.90;98512.03;5056425;28;20032;-90
2021/03/27 01:00:04;;;;;;;14.00;7.88;;;;;;;28.85;13.78;98500.56;5052461;28;20046;-90
2021/03/27 01:02:30;;;;;;;14.07;7.68;;;;;;;29.15;13.63;98499.13;5044655;28;20033;-90
2021/03/27 01:05:01;;;;;;;12.23;6.72;;;;;;;28.92;13.73;98502.34;5060457;28;20043;-90
2021/03/27 01:07:28;;;;;;;13.50;8.00;;;;;;;28.76;14.03;98500.50;5060346;28;20052;-90
2021/03/27 01:10:00;;;;;;;18.50;10.20;;;;;;;28.05;14.47;98499.19;5058526;28;20041;-90
2021/03/27 01:12:31;;;;;;;12.27;6.43;;;;;;;28.12;14.45;98495.34;5050062;28;20090;-91
2021/03/27 01:15:14;;;;;;;14.63;8.37;;;;;;;28.31;14.39;98495.09;5053359;28;20040;-89
2021/03/27 01:17:45;;;;;;;14.07;6.93;;;;;;;28.44;14.06;98492.28;5058891;28;20043;-90
2021/03/27 01:20:17;;;;;;;14.43;7.60;;;;;;;28.63;13.91;98486.41;5043633;28;20385;-90
2021/03/27 01:22:46;;;;;;;13.52;7.20;;;;;;;28.62;14.17;98484.00;5057662;28;20033;-90
2021/03/27 01:25:18;;;;;;;11.50;6.38;;;;;;;28.47;14.30;98477.25;5072870;28;20035;-90
2021/03/27 01:27:57;;;;;;;13.40;8.10;;;;;;;27.86;14.75;98486.06;5060312;28;20374;-90
2021/03/27 01:30:50;;;;;;;13.52;7.40;;;;;;;28.16;14.45;98487.56;5057912;28;20176;-90
2021/03/27 01:33:32;;;;;;;11.80;7.00;;;;;;;28.16;14.33;98479.06;5055081;28;20037;-90
2021/03/27 01:36:15;;;;;;;14.45;8.02;;;;;;;28.20;14.27;98476.91;5059479;28;20029;-90
2021/03/27 01:38:54;;;;;;;16.20;8.63;;;;;;;27.56;14.82;98475.28;5073653;28;20031;-91
2021/03/27 01:41:47;;;;;;;12.98;6.85;;;;;;;27.95;14.35;98475.66;5074026;28;20041;-91
2021/03/27 01:44:40;;;;;;;23.13;10.65;;;;;;;27.60;14.71;98473.13;5072921;28;20044;-91
2021/03/27 01:47:23;;;;;;;17.45;10.00;;;;;;;26.66;15.52;98464.84;5064169;28;20032;-91
2021/03/27 01:49:49;;;;;;;14.05;7.50;;;;;;;27.62;14.85;98470.66;5057043;28;20108;-92
2021/03/27 01:52:36;;;;;;;15.55;7.90;;;;;;;27.76;14.60;98471.03;5059261;28;20124;-91
2021/03/27 01:55:08;;;;;;;11.95;6.88;;;;;;;28.24;14.27;98475.56;5058256;28;20115;-93
2021/03/27 01:57:52;;;;;;;16.02;7.85;;;;;;;28.28;14.02;98472.63;5067909;28;20032;-91
2021/03/27 02:00:30;;;;;;;11.43;5.95;;;;;;;28.15;14.28;98467.00;5064979;28;20094;-91
2021/03/27 02:03:11;;;;;;;14.10;6.97;;;;;;;28.20;14.04;98474.91;5054315;28;20037;-92
2021/03/27 02:05:53;;;;;;;15.25;8.18;;;;;;;26.59;15.66;98469.88;5073356;28;20468;-91
2021/03/27 02:08:43;;;;;;;12.07;6.53;;;;;;;27.40;14.86;98467.66;5036278;28;20427;-91
2021/03/27 02:11:19;;;;;;;11.18;5.80;;;;;;;27.69;14.62;98462.78;5067995;28;20041;-90
2021/03/27 02:14:03;;;;;;;12.18;6.18;;;;;;;27.74;14.69;98467.06;5067858;28;20048;-92
2021/03/27 02:16:49;;;;;;;12.95;7.13;;;;;;;27.79;14.65;98461.66;5077180;28;20073;-92
2021/03/27 02:19:35;;;;;;;12.07;6.47;;;;;;;27.33;15.03;98462.22;5068230;28;20044;-92
2021/03/27 02:22:13;;;;;;;12.38;5.93;;;;;;;27.22;15.01;98464.56;5060415;28;20048;-92
2021/03/27 02:24:48;;;;;;;16.83;9.45;;;;;;;26.37;15.52;98457.59;5078409;28;20059;-90
2021/03/27 02:27:40;;;;;;;13.45;7.05;;;;;;;27.82;14.38;98465.63;5057819;28;20546;-90
2021/03/27 02:30:22;;;;;;;14.13;7.40;;;;;;;27.39;14.61;98457.66;5071498;28;20067;-90
2021/03/27 02:33:40;;;;;;;12.20;6.63;;;;;;;27.64;14.52;98456.88;5070422;28;20036;-90
2021/03/27 02:36:14;;;;;;;12.65;7.07;;;;;;;28.16;14.15;98457.28;5031967;28;20084;-90
2021/03/27 02:39:14;;;;;;;18.58;9.10;;;;;;;26.56;15.33;98446.19;5072725;28;20099;-90
2021/03/27 02:42:05;;;;;;;14.68;8.63;;;;;;;26.76;15.19;98445.31;5067128;28;20033;-90
2021/03/27 02:44:47;;;;;;;14.45;6.05;;;;;;;27.20;14.91;98453.72;5067814;28;20028;-90
2021/03/27 02:47:44;;;;;;;11.75;6.95;;;;;;;27.26;14.97;98456.78;5071144;28;20059;-90
2021/03/27 02:50:10;;;;;;;12.98;6.65;;;;;;;27.25;14.74;98453.19;5067506;28;20104;-90
2021/03/27 02:53:00;;;;;;;16.45;7.28;;;;;;;26.09;15.69;98447.78;5068786;28;20044;-90
2021/03/27 02:55:47;;;;;;;12.55;6.25;;;;;;;27.04;14.93;98445.34;5055470;28;20111;-90
2021/03/27 02:58:26;;;;;;;12.60;6.25;;;;;;;26.36;15.61;98450.34;5068844;28;20135;-90
2021/03/27 03:01:15;;;;;;;10.10;6.70;;;;;;;26.91;15.00;98446.53;5066331;28;20431;-90
2021/03/27 03:04:10;;;;;;;12.55;6.45;;;;;;;27.13;14.70;98442.66;5067830;28;20071;-90
2021/03/27 03:06:56;;;;;;;12.40;6.30;;;;;;;27.18;14.66;98450.56;5071518;28;20029;-90
2021/03/27 03:10:16;;;;;;;11.20;5.70;;;;;;;26.80;15.06;98443.19;5079996;28;20039;-89
2021/03/27 03:13:09;;;;;;;11.40;5.40;;;;;;;27.36;14.66;98439.56;4982718;28;20050;-89
2021/03/27 03:15:40;;;;;;;8.80;5.15;;;;;;;27.50;14.34;98437.56;4989316;28;20030;-89
2021/03/27 03:18:15;;;;;;;11.30;5.22;;;;;;;27.84;13.96;98438.50;5059624;28;20097;-89
2021/03/27 03:21:10;;;;;;;9.05;4.65;;;;;;;27.38;14.58;98425.81;5088405;28;20087;-91
2021/03/27 03:23:49;;;;;;;14.20;6.53;;;;;;;26.36;15.24;98428.63;5044487;28;20059;-92
2021/03/27 03:26:38;;;;;;;16.95;9.95;;;;;;;23.97;17.53;98426.69;5083673;28;20450;-92
2021/03/27 03:29:38;;;;;;;11.18;5.85;;;;;;;24.35;17.53;98426.47;5088849;28;20016;-93
2021/03/27 03:32:10;;;;;;;18.48;7.60;;;;;;;23.60;18.12;98426.84;5091962;28;20173;-93
2021/03/27 03:34:48;;;;;;;10.45;6.25;;;;;;;24.24;17.40;98429.47;5077858;28;20575;-92
2021/03/27 03:37:26;;;;;;;9.95;6.15;;;;;;;24.22;17.26;98428.31;5077635;28;20079;-89
2021/03/27 03:40:12;;;;;;;10.77;5.95;;;;;;;24.31;17.19;98420.16;5088775;28;20036;-91
2021/03/27 03:42:59;;;;;;;9.05;4.60;;;;;;;24.62;16.94;98413.16;5093194;28;20044;-89
2021/03/27 03:45:37;;;;;;;13.13;6.40;;;;;;;24.30;17.43;98412.94;5075867;28;20063;-90
2021/03/27 03:48:15;;;;;;;10.98;4.93;;;;;;;24.27;17.23;98403.34;5093845;28;20028;-90
2021/03/27 03:51:01;;;;;;;14.50;6.50;;;;;;;23.49;18.16;98409.41;5093484;28;20036;-90
2021/03/27 03:53:42;;;;;;;12.02;5.97;;;;;;;24.27;17.21;98400.53;5090858;28;20058;-92
2021/03/27 03:56:12;;;;;;;;;;;;;;;24.21;17.24;98405.06;5092529;28;20040;-92
2021/03/27 03:58:47;;;;;;;13.25;6.75;;;;;;;23.99;17.45;98403.84;5092185;28;19925;-91
2021/03/27 04:01:33;;;;;;;12.13;7.13;;;;;;;23.84;17.47;98405.28;5092551;28;20031;-91
2021/03/27 04:04:19;;;;;;;10.35;5.38;;;;;;;24.05;17.44;98399.31;5081355;28;20028;-91
2021/03/27 04:06:52;;;;;;;11.82;6.68;;;;;;;24.37;16.86;98398.78;5099802;28;20097;-91
2021/03/27 04:09:27;;;;;;;9.45;5.05;;;;;;;24.57;16.83;98394.81;5094326;28;20054;-89
2021/03/27 04:12:05;;;;;;;9.55;5.32;;;;;;;24.93;16.51;98399.72;5094753;28;20043;-88
2021/03/27 04:14:37;;;;;;;6.70;3.90;;;;;;;24.96;16.42;98393.25;5090973;28;20044;-88
2021/03/27 04:17:43;;;;;;;10.32;5.35;;;;;;;25.17;16.15;98390.81;5093656;28;20032;-88
2021/03/27 04:20:13;;;;;;;8.85;4.85;;;;;;;25.20;16.05;98397.56;5092488;28;20503;-89
2021/03/27 04:23:10;;;;;;;8.20;5.22;;;;;;;24.87;16.37;98387.44;5094395;28;20085;-88
2021/03/27 04:26:21;;;;;;;8.63;4.38;;;;;;;25.34;15.90;98391.66;5094130;28;20035;-88
2021/03/27 04:29:15;;;;;;;10.17;5.27;;;;;;;25.85;15.56;98382.44;5068836;28;20092;-88
2021/03/27 04:32:06;;;;;;;7.85;4.13;;;;;;;25.72;15.48;98395.59;5057162;28;20352;-88
2021/03/27 04:34:42;;;;;;;10.40;5.25;;;;;;;25.73;15.44;98396.41;5079220;28;20032;-88
2021/03/27 04:37:20;;;;;;;8.93;3.92;;;;;;;25.95;15.28;98392.63;5099115;28;20056;-88
2021/03/27 04:40:11;;;;;;;10.85;5.07;;;;;;;26.03;15.21;98396.06;5092786;28;20510;-88
2021/03/27 04:42:58;;;;;;;9.77;5.10;;;;;;;26.48;14.87;98398.97;5093067;28;20077;-88
2021/03/27 04:45:28;;;;;;;6.78;3.72;;;;;;;26.49;14.86;98403.38;5091546;28;20047;-88
2021/03/27 04:48:23;;;;;;;7.70;4.18;;;;;;;25.91;15.35;98399.56;5076726;28;20047;-87
2021/03/27 04:51:10;;;;;;;9.27;4.38;;;;;;;26.14;15.21;98399.41;5096476;28;20478;-88
2021/03/27 04:53:49;;;;;;;6.80;3.80;;;;;;;26.05;15.12;98393.59;5091085;28;20040;-87
2021/03/27 04:56:45;;;;;;;8.05;4.55;;;;;;;25.99;15.09;98396.16;5094447;28;20024;-87
2021/03/27 04:59:32;;;;;;;10.27;3.67;;;;;;;25.80;15.54;98394.22;5082329;28;20028;-89
2021/03/27 05:02:16;;;;;;;8.23;4.50;;;;;;;25.85;15.48;98392.91;5077658;28;20040;-89
2021/03/27 05:05:07;;;;;;;7.38;4.65;;;;;;;25.96;15.26;98393.41;5094706;28;20032;-88
2021/03/27 05:08:05;;;;;;;7.03;4.28;;;;;;;25.86;15.39;98394.47;5094974;28;20031;-88
2021/03/27 05:10:40;;;;;;;8.13;4.28;;;;;;;26.38;15.30;98383.94;5096569;28;20058;-88
2021/03/27 05:13:24;;;;;;;8.73;4.57;;;;;;;26.79;14.93;98394.53;5081908;28;20044;-88
2021/03/27 05:16:15;;;;;;;7.65;4.43;;;;;;;27.04;14.57;98393.81;5080139;28;20419;-88
2021/03/27 05:18:49;;;;;;;9.98;4.43;;;;;;;27.41;14.64;98395.94;5072397;28;20421;-88
2021/03/27 05:21:37;;;;;;;9.35;4.80;;;;;;;27.49;14.95;98390.88;5077788;28;20071;-88
2021/03/27 05:24:12;;;;;;;7.30;4.20;;;;;;;27.75;14.54;98393.25;5058471;28;20044;-88
2021/03/27 05:26:51;;;;;;;9.20;3.63;;;;;;;27.32;14.77;98390.16;5072335;28;20036;-90
2021/03/27 05:29:37;;;;;;;7.43;3.75;;;;;;;27.11;15.22;98399.22;5080083;28;20032;-91
2021/03/27 05:32:37;;;;;;;10.07;5.30;;;;;;;26.83;15.33;98389.56;5056957;28;20024;-90
2021/03/27 05:35:19;;;;;;;6.25;3.58;;;;;;;26.64;15.54;98396.09;5069974;28;20489;-90
2021/03/27 05:38:07;;;;;;;7.25;4.45;;;;;;;26.47;15.35;98398.16;5072779;28;20465;-90
2021/03/27 05:41:20;;;;;;;11.88;5.80;;;;;;;26.65;15.38;98389.25;5056434;28;20492;-87
2021/03/27 05:44:01;;;;;;;6.80;3.88;;;;;;;27.38;15.17;98403.25;4969306;28;20038;-88
2021/03/27 05:46:55;;;;;;;7.28;4.32;;;;;;;28.07;14.71;98397.91;5074208;28;20044;-87
2021/03/27 05:49:40;;;;;;;7.07;3.90;;;;;;;28.41;14.40;98391.47;5062417;28;20048;-86
2021/03/27 05:52:27;;;;;;;8.48;4.18;;;;;;;28.83;14.69;98389.22;5073219;28;20040;-87
2021/03/27 05:55:24;;;;;;;8.60;4.70;;;;;;;29.10;14.43;98398.69;5065585;28;20093;-88
2021/03/27 05:57:56;;;;;;;7.50;4.07;;;;;;;29.69;14.20;98391.19;5067379;28;20048;-88
2021/03/27 06:00:25;;;;;;;7.95;4.15;;;;;;;29.93;14.31;98389.44;5055972;28;20081;-89
2021/03/27 06:03:37;;;;;;;7.55;4.45;;;;;;;29.76;14.60;98393.75;5059075;28;20055;-88
2021/03/27 06:06:18;;;;;;;7.78;5.05;;;;;;;30.00;15.54;98387.09;5069673;28;20476;-87
2021/03/27 06:08:56;;;;;;;;;;;;;;;30.08;13.88;98387.59;5067519;28;20051;-87
2021/03/27 06:11:37;;;;;;;9.30;3.95;;;;;;;30.27;13.93;98386.38;5076992;28;20387;-88
2021/03/27 06:14:22;;;;;;;6.20;3.78;;;;;;;30.57;14.06;98388.31;5092457;28;20031;-89
2021/03/27 06:17:03;;;;;;;8.32;4.45;;;;;;;30.99;14.28;98382.06;5088152;28;20039;-89
2021/03/27 06:19:58;;;;;;;8.70;4.68;;;;;;;31.02;14.05;98389.63;5088037;28;20082;-88
2021/03/27 06:22:27;;;;;;;8.13;3.90;;;;;;;31.16;14.17;98386.13;5073189;28;20044;-89
2021/03/27 06:25:11;;;;;;;9.45;5.35;;;;;;;31.09;13.84;98387.25;5085572;28;20342;-89
2021/03/27 06:28:02;;;;;;;7.40;4.30;;;;;;;31.19;13.85;98390.88;5070650;28;20028;-90
2021/03/27 06:30:56;;;;;;;6.57;4.30;;;;;;;31.28;13.10;98388.81;5092487;28;20283;-88
2021/03/27 06:33:47;;;;;;;5.32;3.28;;;;;;;31.49;13.13;98383.41;5087750;28;20032;-86
2021/03/27 06:36:39;;;;;;;7.45;4.72;;;;;;;31.42;13.24;98388.16;5095948;28;20103;-87
2021/03/27 06:39:25;;;;;;;7.00;4.68;;;;;;;30.85;13.15;98383.47;5089950;28;20035;-88
2021/03/27 06:42:27;;;;;;;8.45;4.32;;;;;;;30.72;13.37;98388.50;5040644;28;20123;-90
2021/03/27 06:45:08;;;;;;;7.22;3.78;;;;;;;30.64;13.32;98382.34;5088598;28;20416;-90
2021/03/27 06:48:11;;;;;;;13.10;7.20;;;;;;;30.05;13.73;98382.88;5082258;28;20588;-90
2021/03/27 06:50:52;;;;;;;6.30;4.30;;;;;;;30.16;13.58;98383.22;5095837;28;20031;-90
2021/03/27 06:53:57;;;;;;;7.93;5.03;;;;;;;29.83;13.81;98387.81;5085055;28;20040;-90
2021/03/27 06:56:44;;;;;;;9.65;5.07;;;;;;;29.80;13.74;98388.78;5088011;28;20491;-90
2021/03/27 06:59:59;;;;;;;10.35;5.90;;;;;;;29.41;14.00;98385.41;5086795;28;20097;-89
2021/03/27 07:03:02;;;;;;;11.82;6.45;;;;;;;29.30;13.86;98382.19;5015670;28;20041;-87
2021/03/27 07:05:58;;;;;;;12.02;6.50;;;;;;;28.79;14.67;98380.88;5087639;28;20027;-88
2021/03/27 07:09:02;;;;;;;10.32;5.80;;;;;;;28.79;14.76;98386.53;5080467;28;20040;-89
2021/03/27 07:12:12;;;;;;;11.40;5.57;;;;;;;29.18;14.30;98385.91;5075914;28;20048;-88
2021/03/27 07:15:06;;;;;;;12.33;6.87;;;;;;;28.94;14.53;98384.75;5043891;28;20503;-85
2021/03/27 07:17:42;;;;;;;12.10;6.70;;;;;;;28.59;14.21;98386.06;5082458;28;20515;-87
2021/03/27 07:20:40;;;;;;;11.43;6.43;;;;;;;28.85;14.87;98384.69;5082232;28;20028;-87
2021/03/27 07:23:36;;;;;;;10.18;5.95;;;;;;;29.57;14.27;98389.25;5089616;28;20028;-89
2021/03/27 07:26:39;;;;;;;11.23;5.55;;;;;;;29.31;13.98;98385.81;5084062;28;20028;-87
2021/03/27 07:29:32;;;;;;;14.05;7.38;;;;;;;29.34;14.32;98390.53;5084783;28;20028;-89
2021/03/27 07:32:35;;;;;;;11.32;6.15;;;;;;;29.52;14.22;98389.88;5080472;28;20048;-88
2021/03/27 07:35:59;;;;;;;11.23;5.90;;;;;;;29.57;13.42;98390.03;5090088;28;20032;-88
2021/03/27 07:38:38;;;;;;;14.07;6.90;;;;;;;29.81;14.14;98385.47;5066675;28;20051;-90
2021/03/27 07:41:32;;;;;;;10.25;6.13;;;;;;;30.31;13.52;98387.03;5077762;28;20395;-86
2021/03/27 07:44:19;;;;;;;7.65;4.45;;;;;;;31.07;13.59;98384.09;5083275;28;20032;-88
2021/03/27 07:47:18;;;;;;;11.35;7.25;;;;;;;31.00;13.83;98380.78;5095534;28;20107;-89
2021/03/27 07:50:06;;;;;;;9.32;5.70;;;;;;;31.44;12.91;98376.31;5086016;28;20077;-90
2021/03/27 07:52:53;;;;;;;8.75;5.25;;;;;;;31.08;13.49;98379.22;5093025;28;20069;-89
2021/03/27 07:55:43;;;;;;;14.90;5.47;;;;;;;30.67;13.71;98380.63;5096556;28;20032;-91
2021/03/27 07:58:34;;;;;;;12.73;6.82;;;;;;;30.71;13.64;98376.38;5086123;28;20080;-91
2021/03/27 08:01:28;;;;;;;11.77;5.80;;;;;;;30.69;13.29;98373.22;5091352;28;20036;-90
2021/03/27 08:04:20;;;;;;;8.65;5.55;;;;;;;30.45;14.07;98371.50;5074131;28;20028;-95
2021/03/27 08:06:55;;;;;;;8.27;4.53;;;;;;;30.93;13.78;98375.44;5071358;28;20051;-94
2021/03/27 08:09:49;;;;;;;8.50;5.25;;;;;;;30.52;13.89;98371.97;5091073;28;20463;-87
2021/03/27 08:12:35;;;;;;;14.93;7.13;;;;;;;30.46;13.69;98376.69;5078259;28;20075;-87
2021/03/27 08:15:25;;;;;;;11.38;6.25;;;;;;;30.33;14.12;98373.22;5060936;28;20503;-87
2021/03/27 08:18:37;;;;;;;9.03;5.63;;;;;;;30.41;13.60;98376.53;5070936;28;20032;-87
2021/03/27 08:21:42;;;;;;;8.73;5.60;;;;;;;30.42;13.37;98369.59;5070752;28;20036;-87
2021/03/27 08:24:32;;;;;;;13.48;7.97;;;;;;;31.09;13.55;98375.09;5042905;28;20401;-85
2021/03/27 08:27:35;;;;;;;9.57;5.95;;;;;;;31.36;13.26;98375.88;5062660;28;20037;-88
2021/03/27 08:30:39;;;;;;;7.22;5.03;;;;;;;31.41;13.32;98365.91;5062556;28;20040;-87
2021/03/27 08:33:42;;;;;;;11.00;6.30;;;;;;;30.30;13.51;98362.78;5054083;28;20043;-87
2021/03/27 08:36:41;;;;;;;9.13;5.88;;;;;;;30.55;13.24;98368.19;5057352;28;20788;-89
2021/03/27 08:39:28;;;;;;;9.25;5.63;;;;;;;30.44;13.87;98364.22;5064660;28;20039;-88
2021/03/27 08:42:18;;;;;;;11.57;6.50;;;;;;;30.65;13.29;98368.97;5068407;28;20032;-88
2021/03/27 08:45:21;;;;;;;9.77;5.63;;;;;;;31.02;13.44;98362.03;5071265;28;20486;-90
2021/03/27 08:47:57;;;;;;;9.05;5.13;;;;;;;31.28;13.28;98359.63;5072356;28;20536;-89
2021/03/27 08:50:50;;;;;;;8.27;5.10;;;;;;;31.89;13.19;98364.00;5071915;28;20075;-89
2021/03/27 08:53:25;;;;;;;6.55;4.30;;;;;;;31.86;12.89;98351.56;5065830;28;20024;-89
2021/03/27 08:56:07;;;;;;;8.73;5.45;;;;;;;31.39;12.87;98349.34;5064313;28;20037;-90
2021/03/27 08:58:52;;;;;;;7.63;5.00;;;;;;;32.00;13.15;98353.72;5069754;28;20454;-90
2021/03/27 09:01:50;;;;;;;5.68;4.00;;;;;;;32.85;12.97;98352.19;5064179;28;20032;-89
2021/03/27 09:04:25;;;;;;;5.38;3.83;;;;;;;33.62;11.94;98341.44;5058759;28;20026;-92
2021/03/27 09:07:16;;;;;;;4.25;3.20;;;;;;;33.10;12.32;98334.56;5060597;28;20507;-96
2021/03/27 09:09:55;;;;;;;8.15;4.32;;;;;;;32.85;11.47;98337.97;5049002;28;20031;-91
2021/03/27 09:12:45;;;;;;;5.95;4.03;;;;;;;33.22;11.52;98336.34;5055572;28;20055;-92
2021/03/27 09:15:41;;;;;;;4.45;2.65;;;;;;;33.80;11.47;98340.41;5055670;28;20028;-92
2021/03/27 09:18:16;;;;;;;6.38;3.83;;;;;;;33.65;10.98;98339.69;5065630;28;20123;-92
2021/03/27 09:21:26;;;;;;;10.40;4.00;;;;;;;33.60;11.76;98338.31;5070071;28;20472;-92
2021/03/27 09:24:25;;;;;;;4.57;3.07;;;;;;;33.58;11.25;98337.22;4996113;28;20044;-93
2021/03/27 09:27:27;;;;;;;7.35;3.72;;;;;;;33.21;11.12;98331.16;5002409;28;20108;-86
2021/03/27 09:30:23;;;;;;;9.63;4.88;;;;;;;31.62;12.05;98342.22;5063742;28;20072;-86
2021/03/27 09:33:03;;;;;;;4.43;2.92;;;;;;;32.64;11.89;98319.19;5066434;28;20044;-85
2021/03/27 09:35:34;;;;;;;6.80;4.10;;;;;;;32.95;12.21;98333.75;5072854;28;20075;-86
2021/03/27 09:38:23;;;;;;;3.95;2.80;;;;;;;33.77;10.98;98327.19;5045711;28;20546;-86
2021/03/27 09:41:26;;;;;;;5.75;3.72;;;;;;;33.88;10.84;98325.28;5069096;28;20384;-87
2021/03/27 09:44:14;;;;;;;3.85;2.65;;;;;;;33.47;11.23;98325.63;5061473;28;20052;-86
2021/03/27 09:47:02;;;;;;;3.80;3.15;;;;;;;33.37;10.53;98325.72;5050414;28;20064;-86
2021/03/27 09:49:49;;;;;;;3.95;2.65;;;;;;;33.62;11.13;98323.56;5060248;28;20108;-87
2021/03/27 09:52:49;;;;;;;3.60;2.20;;;;;;;34.17;10.44;98330.09;5068703;28;20120;-87
2021/03/27 09:55:30;;;;;;;3.50;2.58;;;;;;;33.69;10.83;98318.25;5069991;28;20029;-87
2021/03/27 09:58:02;;;;;;;2.85;2.38;;;;;;;33.87;11.04;98326.56;5059692;28;20112;-86
2021/03/27 10:00:47;;;;;;;5.55;3.35;;;;;;;33.12;10.65;98322.69;5058291;28;20028;-87
2021/03/27 10:03:16;;;;;;;8.13;4.28;;;;;;;32.69;11.36;98332.72;5052580;28;20059;-85
2021/03/27 10:06:28;;;;;;;4.35;2.25;;;;;;;33.51;10.54;98329.84;5044721;28;20036;-85
2021/03/27 10:09:20;;;;;;;4.68;2.60;;;;;;;33.57;10.82;98332.81;5020261;28;20492;-91
2021/03/27 10:11:56;;;;;;;3.53;2.63;;;;;;;33.80;10.95;98331.88;5024860;28;20044;-91
2021/03/27 10:14:29;;;;;;;6.28;2.40;;;;;;;33.97;10.91;98327.22;5079181;28;20067;-85
2021/03/27 10:17:19;;;;;;;4.13;3.00;;;;;;;33.62;10.34;98332.91;5079862;28;20066;-86
2021/03/27 10:20:00;;;;;;;;;;;;;;;33.98;9.88;98328.78;5078975;28;20032;-85
2021/03/27 10:22:57;;;;;;;3.30;2.38;;;;;;;34.16;10.65;98322.06;5098473;28;20427;-86
2021/03/27 10:25:53;;;;;;;4.82;2.70;;;;;;;33.90;11.55;98331.28;5087776;28;20069;-89
2021/03/27 10:28:35;;;;;;;2.72;2.28;;;;;;;33.51;12.00;98320.53;5065457;28;20056;-88
2021/03/27 10:31:16;;;;;;;2.20;2.00;;;;;;;34.12;9.95;98330.84;5089514;28;20031;-88
2021/03/27 10:33:57;;;;;;;3.50;2.70;;;;;;;33.49;11.00;98320.22;5081296;28;20040;-88
2021/03/27 10:36:47;;;;;;;5.45;2.60;;;;;;;34.24;10.02;98318.28;5084558;28;20032;-89
2021/03/27 10:39:39;;;;;;;3.60;2.50;;;;;;;33.67;10.99;98314.34;5091355;28;20035;-89
2021/03/27 10:42:23;;;;;;;2.75;2.30;;;;;;;34.80;10.82;98316.91;5084722;28;20036;-88
2021/03/27 10:45:11;;;;;;;2.97;2.20;;;;;;;34.81;10.50;98321.34;5096952;28;20039;-93
2021/03/27 10:47:45;;;;;;;2.33;1.63;;;;;;;34.91;9.65;98310.56;5096924;28;20040;-90
2021/03/27 10:50:22;;;;;;;3.30;2.78;;;;;;;34.06;9.56;98316.50;5092033;28;20040;-86
2021/03/27 10:53:10;;;;;;;3.03;2.10;;;;;;;34.19;10.68;98313.31;5086528;28;20030;-87
2021/03/27 10:56:02;;;;;;;5.50;3.92;;;;;;;33.57;10.79;98313.66;5082779;28;20071;-88
2021/03/27 10:58:53;;;;;;;2.95;2.28;;;;;;;33.66;9.56;98319.25;5068088;28;20036;-86
2021/03/27 11:01:50;;;;;;;7.28;2.40;;;;;;;33.28;9.98;98293.75;5084916;28;20044;-87
2021/03/27 11:04:34;;;;;;;3.53;2.72;;;;;;;33.11;10.32;98316.22;5083417;28;20081;-87
2021/03/27 11:07:37;;;;;;;3.33;2.55;;;;;;;33.45;9.81;98317.56;5056933;28;20435;-88
2021/03/27 11:10:34;;;;;;;2.97;2.28;;;;;;;33.10;10.26;98311.81;5085806;28;20036;-86
2021/03/27 11:13:28;;;;;;;2.80;2.25;;;;;;;33.82;10.55;98304.47;5048248;28;20049;-86
2021/03/27 11:16:22;;;;;;;3.20;2.25;;;;;;;34.11;9.73;98314.22;5057366;28;20040;-87
2021/03/27 11:19:09;;;;;;;4.30;2.70;;;;;;;33.84;10.44;98313.28;5061914;28;20041;-87
2021/03/27 11:21:59;;;;;;;2.83;2.13;;;;;;;33.29;10.14;98313.19;5067323;28;20040;-89
2021/03/27 11:24:58;;;;;;;3.17;2.30;;;;;;;33.30;10.81;98323.28;5061821;28;20029;-86
2021/03/27 11:27:42;;;;;;;5.35;3.08;;;;;;;33.47;10.21;98317.09;5063595;28;20080;-86
2021/03/27 11:30:36;;;;;;;4.63;2.88;;;;;;;34.08;10.07;98316.00;5047786;28;20823;-85
2021/03/27 11:33:26;;;;;;;2.80;1.95;;;;;;;34.42;10.33;98322.94;5058375;28;20052;-86
2021/03/27 11:36:07;;;;;;;5.05;2.40;;;;;;;35.06;10.21;98314.88;5064841;28;20443;-88
2021/03/27 11:38:56;;;;;;;2.42;1.90;;;;;;;35.23;10.01;98318.69;5069200;28;20029;-87
2021/03/27 11:41:40;;;;;;;3.15;2.38;;;;;;;34.44;9.90;98320.34;5052539;28;20076;-87
2021/03/27 11:44:34;;;;;;;4.40;3.17;;;;;;;34.25;10.16;98322.72;5060031;28;20045;-88
2021/03/27 11:47:20;;;;;;;3.28;2.15;;;;;;;34.78;9.88;98319.47;5041747;28;20082;-87
2021/03/27 11:49:53;;;;;;;3.97;2.25;;;;;;;34.70;10.03;98312.66;5066611;28;20047;-88
2021/03/27 11:52:25;;;;;;;2.30;1.90;;;;;;;34.24;10.43;98315.44;5057418;28;20071;-88
2021/03/27 11:55:28;;;;;;;3.78;2.67;;;;;;;33.86;9.92;98318.50;5067708;28;20037;-91
2021/03/27 11:58:00;;;;;;;3.75;2.63;;;;;;;33.26;10.47;98311.31;5035121;28;20037;-92
2021/03/27 12:00:50;;;;;;;2.85;2.17;;;;;;;33.48;9.94;98315.81;5054049;28;20021;-90
2021/03/27 12:03:39;;;;;;;2.58;2.35;;;;;;;33.50;10.28;98321.78;5040192;28;20036;-89
2021/03/27 12:06:50;;;;;;;3.92;2.47;;;;;;;34.05;10.70;98320.63;5046832;28;20033;-90
2021/03/27 12:09:28;;;;;;;3.97;2.33;;;;;;;34.59;10.33;98318.22;5053815;28;20452;-86
2021/03/27 12:12:11;;;;;;;2.90;2.40;;;;;;;34.19;10.37;98321.88;5062080;28;20076;-87
2021/03/27 12:14:45;;;;;;;2.85;2.03;;;;;;;34.11;10.02;98312.16;5072437;28;20111;-88
2021/03/27 12:17:35;;;;;;;4.97;2.70;;;;;;;33.75;9.76;98326.91;5103654;28;20026;-96
2021/03/27 12:20:24;;;;;;;2.75;2.28;;;;;;;34.24;9.62;98334.63;5086166;28;20043;-95
2021/03/27 12:23:10;;;;;;;4.18;3.20;;;;;;;33.46;10.24;98321.22;5080027;28;20488;-96
2021/03/27 12:26:02;;;;;;;4.00;3.25;;;;;;;34.12;10.16;98327.19;5068310;28;20071;-94
2021/03/27 12:28:31;;;;;;;3.22;2.50;;;;;;;33.07;10.33;98324.16;5086645;28;20032;-95
2021/03/27 12:31:13;;;;;;;3.38;2.10;;;;;;;33.86;10.24;98325.00;5077457;28;20111;-96
2021/03/27 12:34:15;;;;;;;2.60;2.05;;;;;;;34.94;9.27;98320.97;5075654;28;20040;-95
2021/03/27 12:37:06;;;;;;;2.83;2.13;;;;;;;35.05;9.83;98323.94;5011875;28;20125;-95
2021/03/27 12:39:55;;;;;;;4.82;2.22;;;;;;;34.95;9.66;98313.97;5059158;28;20044;-93
2021/03/27 12:42:21;;;;;;;2.80;2.08;;;;;;;34.54;10.18;98325.44;5078905;28;20045;-93
2021/03/27 12:45:00;;;;;;;3.55;2.08;;;;;;;34.25;9.29;98322.72;5087275;28;20503;-92
2021/03/27 12:47:43;;;;;;;1.98;1.65;;;;;;;35.02;9.40;98328.59;5075907;28;20392;-96
2021/03/27 12:50:39;;;;;;;3.83;2.53;;;;;;;34.74;9.09;98333.19;5079546;28;20044;-94
2021/03/27 12:53:05;;;;;;;5.50;2.30;;;;;;;34.58;9.63;98333.78;5064997;28;20075;-94
2021/03/27 12:55:43;;;;;;;2.83;2.33;;;;;;;33.48;9.43;98330.84;5075773;28;20031;-94
2021/03/27 12:58:15;;;;;;;3.13;2.58;;;;;;;32.01;11.42;98331.78;5087552;28;20044;-93
2021/03/27 13:00:58;;;;;;;2.53;1.92;;;;;;;33.46;10.14;98336.25;5083003;28;20031;-94